Terminal Aerodrome Forecast
Issued by NWS

Home | Current Version | Previous Version | Graphics & Text | Print | Product List | Glossary On
Versions: 1 2 3 4 5 6 7 8 9 10 11 12 13 14 15 16 17 18
754
FTUS43 KICT 212331
TAFRSL
TAF
KRSL 212331Z 2200/2224 17019G27KT P6SM SCT080 SCT250
     FM220100 17016G22KT P6SM VCTS SCT080CB SCT250
     FM220400 17014KT P6SM BKN200
     FM221500 19013KT P6SM SCT200=

USA.gov is the U.S. government's official web portal to all federal, state and local government web resources and services.